Time;durP1;ratioP1;P1;durP2;ratioP2;P2;SDS_P1;SDS_P2;PMS_P1;PMS_P2;Temp;Humidity;BMP_temperature;BMP_pressure;BME280_temperature;BME280_humidity;BME280_pressure;Samples;Min_cycle;Max_cycle;Signal;HPM_P1;HPM_P2
2022/05/09 00:01:22;;;;;;;10.83;4.10;;;;;;;;;;5091685;28;20482;-54
2022/05/09 00:03:48;;;;;;;6.63;3.13;;;;;;;;;;5091851;28;20614;-54
2022/05/09 00:06:15;;;;;;;9.27;3.77;;;;;;;;;;5092380;28;20202;-53
2022/05/09 00:08:42;;;;;;;9.60;3.70;;;;;;;;;;5092025;28;20210;-54
2022/05/09 00:11:08;;;;;;;11.77;4.13;;;;;;;;;;5092250;28;20564;-53
2022/05/09 00:13:34;;;;;;;10.73;3.73;;;;;;;;;;5091960;28;20229;-53
2022/05/09 00:16:00;;;;;;;11.93;3.97;;;;;;;;;;5091982;28;20595;-53
2022/05/09 00:18:26;;;;;;;10.00;3.63;;;;;;;;;;5091539;28;20191;-55
2022/05/09 00:20:52;;;;;;;12.50;4.20;;;;;;;;;;5090283;28;20234;-53
2022/05/09 00:23:19;;;;;;;8.80;3.47;;;;;;;;;;5091798;28;20245;-55
2022/05/09 00:25:45;;;;;;;13.83;4.27;;;;;;;;;;5091607;28;20719;-53
2022/05/09 00:28:11;;;;;;;7.43;4.00;;;;;;;;;;5092010;28;20191;-54
2022/05/09 00:30:37;;;;;;;10.83;3.50;;;;;;;;;;5091787;28;20705;-53
2022/05/09 00:33:04;;;;;;;7.67;4.03;;;;;;;;;;5091355;28;20230;-53
2022/05/09 00:35:30;;;;;;;7.83;4.10;;;;;;;;;;5091705;28;20666;-53
2022/05/09 00:37:56;;;;;;;11.80;3.87;;;;;;;;;;5091526;28;20211;-53
2022/05/09 00:40:23;;;;;;;10.53;4.07;;;;;;;;;;5091574;28;20271;-53
2022/05/09 00:42:50;;;;;;;6.80;3.40;;;;;;;;;;5091449;28;20560;-53
2022/05/09 00:45:17;;;;;;;9.27;3.50;;;;;;;;;;5091810;28;20251;-54
2022/05/09 00:47:43;;;;;;;13.30;4.07;;;;;;;;;;5091754;28;20244;-54
2022/05/09 00:50:11;;;;;;;7.93;3.97;;;;;;;;;;5091716;28;20202;-54
2022/05/09 00:52:39;;;;;;;11.17;3.80;;;;;;;;;;5091291;28;20662;-54
2022/05/09 00:55:07;;;;;;;9.63;3.93;;;;;;;;;;5091225;28;20684;-54
2022/05/09 00:57:37;;;;;;;8.07;3.97;;;;;;;;;;5091678;28;20194;-54
2022/05/09 01:00:07;;;;;;;8.23;3.93;;;;;;;;;;5091641;28;20298;-54
2022/05/09 01:02:33;;;;;;;8.77;3.87;;;;;;;;;;5091619;28;20612;-54
2022/05/09 01:05:00;;;;;;;9.80;3.77;;;;;;;;;;5091644;28;20214;-54
2022/05/09 01:07:27;;;;;;;10.07;4.00;;;;;;;;;;5091647;28;20230;-54
2022/05/09 01:09:53;;;;;;;11.43;3.77;;;;;;;;;;5091518;28;20199;-54
2022/05/09 01:12:23;;;;;;;12.23;3.70;;;;;;;;;;5091720;28;20210;-54
2022/05/09 01:14:50;;;;;;;12.83;3.90;;;;;;;;;;5091465;28;20776;-54
2022/05/09 01:17:17;;;;;;;8.47;3.70;;;;;;;;;;5091477;28;20328;-54
2022/05/09 01:19:44;;;;;;;9.60;3.97;;;;;;;;;;5091461;28;20562;-54
2022/05/09 01:22:20;;;;;;;9.03;3.90;;;;;;;;;;5091394;28;20286;-54
2022/05/09 01:24:46;;;;;;;6.03;3.80;;;;;;;;;;5091261;28;20226;-54
2022/05/09 01:27:12;;;;;;;10.00;3.90;;;;;;;;;;5091480;28;20274;-54
2022/05/09 01:29:42;;;;;;;7.07;3.80;;;;;;;;;;5093030;28;20233;-54
2022/05/09 01:32:10;;;;;;;8.43;3.83;;;;;;;;;;5095258;28;20209;-54
2022/05/09 01:34:38;;;;;;;9.87;3.73;;;;;;;;;;5094927;28;20221;-54
2022/05/09 01:37:07;;;;;;;9.43;3.73;;;;;;;;;;5094883;28;20293;-54
2022/05/09 01:39:36;;;;;;;8.93;3.70;;;;;;;;;;5094926;28;20255;-54
2022/05/09 01:42:04;;;;;;;7.47;3.73;;;;;;;;;;5094894;28;20206;-53
2022/05/09 01:44:30;;;;;;;10.17;3.63;;;;;;;;;;5094988;28;20191;-54
2022/05/09 01:49:29;;;;;;;7.83;4.17;;;;;;;;;;5094760;28;20210;-54
2022/05/09 01:50:00;;;;;;;9.87;4.23;;;;;;;;;;5094728;28;20285;-54
2022/05/09 01:52:26;;;;;;;14.70;4.03;;;;;;;;;;5094604;28;20245;-54
2022/05/09 01:54:54;;;;;;;11.07;4.30;;;;;;;;;;5094313;28;20231;-54
2022/05/09 01:57:20;;;;;;;5.37;3.53;;;;;;;;;;5094691;28;20203;-54
2022/05/09 01:59:46;;;;;;;8.17;3.70;;;;;;;;;;5094483;28;20564;-54
2022/05/09 02:02:13;;;;;;;10.33;4.00;;;;;;;;;;5094634;28;20191;-54
2022/05/09 02:04:40;;;;;;;8.63;3.80;;;;;;;;;;5094371;28;20206;-54
2022/05/09 02:07:09;;;;;;;7.70;3.97;;;;;;;;;;5094443;28;20787;-54
2022/05/09 02:09:35;;;;;;;10.17;4.30;;;;;;;;;;5094330;28;20207;-54
2022/05/09 02:12:03;;;;;;;7.90;4.33;;;;;;;;;;5094515;28;20252;-54
2022/05/09 02:14:29;;;;;;;7.33;3.43;;;;;;;;;;5094337;28;20230;-53
2022/05/09 02:16:54;;;;;;;9.10;4.00;;;;;;;;;;5094056;28;20249;-53
2022/05/09 02:19:20;;;;;;;5.80;3.43;;;;;;;;;;5094082;28;20364;-53
2022/05/09 02:21:46;;;;;;;9.07;3.43;;;;;;;;;;5094270;28;20228;-53
2022/05/09 02:24:12;;;;;;;10.60;3.77;;;;;;;;;;5093894;28;20758;-53
2022/05/09 02:26:38;;;;;;;9.57;4.17;;;;;;;;;;5093803;28;20203;-53
2022/05/09 02:29:06;;;;;;;7.40;4.10;;;;;;;;;;5093765;28;20272;-53
2022/05/09 02:31:34;;;;;;;10.27;4.83;;;;;;;;;;5093852;28;20436;-53
2022/05/09 02:34:01;;;;;;;9.60;3.83;;;;;;;;;;5093669;28;21020;-53
2022/05/09 02:36:27;;;;;;;9.30;3.80;;;;;;;;;;5093853;28;20722;-53
2022/05/09 02:38:54;;;;;;;20.73;4.33;;;;;;;;;;5093523;28;20565;-53
2022/05/09 02:41:20;;;;;;;12.43;4.27;;;;;;;;;;5093297;28;20483;-53
2022/05/09 02:43:46;;;;;;;7.20;3.90;;;;;;;;;;5093887;28;20210;-53
2022/05/09 02:46:13;;;;;;;8.20;3.63;;;;;;;;;;5093728;28;20481;-53
2022/05/09 02:48:39;;;;;;;10.03;3.77;;;;;;;;;;5093506;28;20203;-53
2022/05/09 02:51:06;;;;;;;9.37;3.90;;;;;;;;;;5093335;28;20554;-53
2022/05/09 02:53:32;;;;;;;7.33;3.90;;;;;;;;;;5093415;28;20259;-53
2022/05/09 02:55:58;;;;;;;6.57;3.67;;;;;;;;;;5093450;28;20682;-53
2022/05/09 02:58:24;;;;;;;10.83;4.70;;;;;;;;;;5093242;28;20277;-53
2022/05/09 03:00:50;;;;;;;7.63;3.27;;;;;;;;;;5092971;28;20870;-53
2022/05/09 03:06:02;;;;;;;8.83;3.67;;;;;;;;;;5093400;28;20416;-53
2022/05/09 03:08:29;;;;;;;9.40;3.67;;;;;;;;;;5093163;28;20441;-53
2022/05/09 03:10:56;;;;;;;7.10;3.50;;;;;;;;;;5093163;28;20441;-53
2022/05/09 03:13:22;;;;;;;6.97;3.40;;;;;;;;;;5093051;28;20472;-53
2022/05/09 03:15:49;;;;;;;7.87;4.17;;;;;;;;;;5092745;28;20638;-53
2022/05/09 03:18:16;;;;;;;8.90;4.00;;;;;;;;;;5092957;28;20503;-52
2022/05/09 03:20:44;;;;;;;6.07;3.77;;;;;;;;;;5093030;28;20549;-53
2022/05/09 03:23:10;;;;;;;8.53;4.23;;;;;;;;;;5093092;28;20536;-52
2022/05/09 03:25:37;;;;;;;10.17;4.17;;;;;;;;;;5092921;28;20234;-53
2022/05/09 03:28:03;;;;;;;9.30;4.20;;;;;;;;;;5092625;28;20528;-53
2022/05/09 03:30:29;;;;;;;10.73;3.83;;;;;;;;;;5092665;28;20848;-53
2022/05/09 03:32:55;;;;;;;6.30;3.87;;;;;;;;;;5092581;28;20437;-53
2022/05/09 03:35:21;;;;;;;5.67;3.63;;;;;;;;;;5092708;28;20252;-53
2022/05/09 03:37:49;;;;;;;10.97;5.33;;;;;;;;;;5092244;28;20433;-53
2022/05/09 03:40:15;;;;;;;10.30;3.87;;;;;;;;;;5092611;28;20463;-53
2022/05/09 03:42:41;;;;;;;9.70;3.90;;;;;;;;;;5092687;28;20646;-53
2022/05/09 03:45:07;;;;;;;8.20;3.93;;;;;;;;;;5092383;28;20457;-53
2022/05/09 03:47:33;;;;;;;8.57;3.80;;;;;;;;;;5092494;28;20206;-53
2022/05/09 03:49:59;;;;;;;8.77;4.30;;;;;;;;;;5092311;28;20496;-52
2022/05/09 03:52:25;;;;;;;8.57;4.00;;;;;;;;;;5091533;28;20294;-53
2022/05/09 03:54:55;;;;;;;6.30;3.40;;;;;;;;;;5092201;28;20560;-52
2022/05/09 03:57:21;;;;;;;9.53;4.20;;;;;;;;;;5092541;28;20207;-53
2022/05/09 03:59:47;;;;;;;9.90;4.53;;;;;;;;;;5092579;28;20480;-52
2022/05/09 04:02:13;;;;;;;7.10;3.93;;;;;;;;;;5092574;28;20939;-52
2022/05/09 04:04:39;;;;;;;6.97;4.10;;;;;;;;;;5092123;28;20195;-53
2022/05/09 04:07:05;;;;;;;7.23;4.03;;;;;;;;;;5091918;28;20290;-52
2022/05/09 04:09:31;;;;;;;8.87;3.93;;;;;;;;;;5092175;28;20214;-53
2022/05/09 04:11:59;;;;;;;9.13;4.00;;;;;;;;;;5092048;28;20195;-52
2022/05/09 04:17:10;;;;;;;7.73;3.80;;;;;;;;;;5091838;28;20617;-53
2022/05/09 04:19:36;;;;;;;6.83;3.60;;;;;;;;;;5091843;28;20428;-53
2022/05/09 04:22:02;;;;;;;5.43;4.00;;;;;;;;;;5091659;28;20445;-53
2022/05/09 04:24:29;;;;;;;8.30;4.10;;;;;;;;;;5092127;28;20225;-53
2022/05/09 04:26:55;;;;;;;9.70;4.43;;;;;;;;;;5091935;28;20206;-53
2022/05/09 04:29:23;;;;;;;4.53;3.53;;;;;;;;;;5091885;28;20494;-53
2022/05/09 04:31:49;;;;;;;5.70;3.50;;;;;;;;;;5091532;28;20892;-53
2022/05/09 04:34:15;;;;;;;9.20;3.57;;;;;;;;;;5091760;28;20314;-53
2022/05/09 04:36:41;;;;;;;7.50;3.70;;;;;;;;;;5091878;28;20276;-53
2022/05/09 04:39:07;;;;;;;7.40;3.63;;;;;;;;;;5091604;28;20247;-53
2022/05/09 04:41:33;;;;;;;15.23;4.33;;;;;;;;;;5091720;28;20441;-53
2022/05/09 04:43:59;;;;;;;6.53;4.10;;;;;;;;;;5091852;28;20198;-53
2022/05/09 04:46:27;;;;;;;11.40;4.03;;;;;;;;;;5091858;28;20519;-53
2022/05/09 04:48:53;;;;;;;6.20;3.57;;;;;;;;;;5091430;28;20441;-53
2022/05/09 04:51:19;;;;;;;7.77;3.80;;;;;;;;;;5091482;28;20203;-53
2022/05/09 04:53:49;;;;;;;6.30;3.40;;;;;;;;;;5091540;28;20223;-53
2022/05/09 04:56:15;;;;;;;7.27;4.10;;;;;;;;;;5091658;28;20210;-53
2022/05/09 04:58:41;;;;;;;7.87;3.60;;;;;;;;;;5091609;28;20444;-53
2022/05/09 05:01:07;;;;;;;5.60;3.60;;;;;;;;;;5091377;28;20213;-53
2022/05/09 05:03:34;;;;;;;6.30;3.40;;;;;;;;;;5093026;28;20427;-53
2022/05/09 05:06:00;;;;;;;8.83;3.70;;;;;;;;;;5095498;28;20251;-53
2022/05/09 05:08:30;;;;;;;6.63;3.43;;;;;;;;;;5095392;28;20191;-53
2022/05/09 05:10:56;;;;;;;7.80;3.50;;;;;;;;;;5095014;28;20195;-53
2022/05/09 05:13:23;;;;;;;7.20;3.37;;;;;;;;;;5094671;28;20205;-53
2022/05/09 05:15:49;;;;;;;5.27;3.30;;;;;;;;;;5094829;28;20257;-53
2022/05/09 05:18:18;;;;;;;9.00;3.43;;;;;;;;;;5095119;28;20199;-53
2022/05/09 05:20:46;;;;;;;6.23;3.20;;;;;;;;;;5095004;28;20245;-52
2022/05/09 05:23:12;;;;;;;5.70;3.20;;;;;;;;;;5095020;28;20295;-53
2022/05/09 05:25:40;;;;;;;5.60;2.90;;;;;;;;;;5095051;28;20575;-53
2022/05/09 05:28:07;;;;;;;6.33;3.40;;;;;;;;;;5095095;28;20206;-53
2022/05/09 05:30:35;;;;;;;6.33;3.40;;;;;;;;;;5094920;28;20734;-52
2022/05/09 05:33:02;;;;;;;5.87;3.63;;;;;;;;;;5095116;28;20335;-52
2022/05/09 05:35:29;;;;;;;6.50;3.17;;;;;;;;;;5094978;28;20261;-52
2022/05/09 05:37:56;;;;;;;6.37;3.40;;;;;;;;;;5094692;28;20610;-53
2022/05/09 05:40:22;;;;;;;7.57;3.40;;;;;;;;;;5095009;28;20207;-53
2022/05/09 05:42:48;;;;;;;6.50;2.97;;;;;;;;;;5094735;28;20665;-52
2022/05/09 05:45:15;;;;;;;7.67;3.57;;;;;;;;;;5094547;28;20195;-52
2022/05/09 05:47:41;;;;;;;7.37;3.07;;;;;;;;;;5094427;28;20202;-53
2022/05/09 05:50:09;;;;;;;5.47;3.17;;;;;;;;;;5094296;28;20244;-52
2022/05/09 05:52:35;;;;;;;7.33;3.93;;;;;;;;;;5093275;28;20571;-53
2022/05/09 05:55:03;;;;;;;8.47;3.20;;;;;;;;;;5094579;28;20233;-53
2022/05/09 05:57:30;;;;;;;7.30;3.63;;;;;;;;;;5094858;28;20561;-53
2022/05/09 05:59:57;;;;;;;8.27;3.50;;;;;;;;;;5094472;28;20203;-53
2022/05/09 06:02:23;;;;;;;5.73;3.30;;;;;;;;;;5094470;28;20195;-53
2022/05/09 06:04:49;;;;;;;6.27;3.17;;;;;;;;;;5094337;28;20199;-53
2022/05/09 06:07:16;;;;;;;6.20;3.43;;;;;;;;;;5094096;28;20199;-53
2022/05/09 06:09:44;;;;;;;5.90;2.70;;;;;;;;;;5094434;28;20214;-53
2022/05/09 06:12:12;;;;;;;4.83;2.70;;;;;;;;;;5094521;28;20202;-53
2022/05/09 06:14:38;;;;;;;6.93;3.23;;;;;;;;;;5093253;28;20234;-54
2022/05/09 06:17:04;;;;;;;5.17;2.80;;;;;;;;;;5093639;28;20653;-53
2022/05/09 06:19:30;;;;;;;6.33;2.80;;;;;;;;;;5094281;28;20282;-54
2022/05/09 06:21:58;;;;;;;6.80;3.27;;;;;;;;;;5093775;28;20287;-53
2022/05/09 06:24:24;;;;;;;6.03;2.80;;;;;;;;;;5094134;28;20214;-54
2022/05/09 06:26:50;;;;;;;10.70;3.63;;;;;;;;;;5093601;28;20223;-54
2022/05/09 06:29:18;;;;;;;7.00;3.10;;;;;;;;;;5094117;28;20242;-54
2022/05/09 06:31:45;;;;;;;7.00;2.77;;;;;;;;;;5093906;28;20621;-53
2022/05/09 06:34:13;;;;;;;4.57;2.90;;;;;;;;;;5093810;28;20227;-54
2022/05/09 06:36:39;;;;;;;5.03;2.73;;;;;;;;;;5093678;28;20203;-54
2022/05/09 06:39:06;;;;;;;7.57;2.90;;;;;;;;;;5093671;28;20615;-54
2022/05/09 06:41:32;;;;;;;5.93;2.70;;;;;;;;;;5093505;28;20202;-54
2022/05/09 06:43:58;;;;;;;6.20;2.77;;;;;;;;;;5093535;28;20268;-54
2022/05/09 06:46:26;;;;;;;6.20;3.20;;;;;;;;;;5093301;28;20658;-53
2022/05/09 06:48:52;;;;;;;6.17;3.10;;;;;;;;;;5093616;28;20203;-54
2022/05/09 06:51:18;;;;;;;5.23;3.00;;;;;;;;;;5093338;28;20199;-54
2022/05/09 06:53:44;;;;;;;6.77;2.80;;;;;;;;;;5093491;28;20279;-54
2022/05/09 06:56:10;;;;;;;6.33;3.10;;;;;;;;;;5093491;28;20229;-54
2022/05/09 06:58:36;;;;;;;6.00;3.03;;;;;;;;;;5093479;28;20226;-54
2022/05/09 07:01:11;;;;;;;6.77;3.17;;;;;;;;;;5093263;28;20202;-54
2022/05/09 07:03:38;;;;;;;6.83;3.17;;;;;;;;;;5093520;28;20289;-54
2022/05/09 07:06:04;;;;;;;5.47;2.83;;;;;;;;;;5093079;28;20217;-54
2022/05/09 07:08:32;;;;;;;6.43;3.03;;;;;;;;;;5093334;28;20685;-54
2022/05/09 07:10:58;;;;;;;5.60;3.00;;;;;;;;;;5093201;28;20654;-54
2022/05/09 07:13:24;;;;;;;7.47;3.00;;;;;;;;;;5093069;28;20233;-54
2022/05/09 07:15:50;;;;;;;6.60;3.03;;;;;;;;;;5092908;28;20234;-55
2022/05/09 07:18:16;;;;;;;8.30;3.20;;;;;;;;;;5093152;28;20244;-55
2022/05/09 07:20:44;;;;;;;6.27;2.87;;;;;;;;;;5093068;28;20199;-55
2022/05/09 07:23:11;;;;;;;8.43;3.03;;;;;;;;;;5092686;28;20205;-54
2022/05/09 07:25:37;;;;;;;7.90;3.03;;;;;;;;;;5092440;28;20211;-55
2022/05/09 07:28:03;;;;;;;6.23;3.13;;;;;;;;;;5092725;28;20207;-54
2022/05/09 07:30:31;;;;;;;8.40;2.97;;;;;;;;;;5092937;28;20609;-56
2022/05/09 07:32:57;;;;;;;6.27;3.00;;;;;;;;;;5092782;28;20206;-54
2022/05/09 07:35:23;;;;;;;8.20;3.23;;;;;;;;;;5092587;28;20564;-54
2022/05/09 07:37:51;;;;;;;6.97;2.80;;;;;;;;;;5092488;28;20206;-55
2022/05/09 07:40:19;;;;;;;7.73;2.90;;;;;;;;;;5092843;28;20202;-55
2022/05/09 07:42:48;;;;;;;8.53;3.03;;;;;;;;;;5092705;28;20286;-54
2022/05/09 07:45:15;;;;;;;8.23;3.40;;;;;;;;;;5092548;28;20650;-55
2022/05/09 07:47:41;;;;;;;6.67;2.80;;;;;;;;;;5092499;28;20256;-54
2022/05/09 07:50:08;;;;;;;7.90;2.97;;;;;;;;;;5092390;28;20205;-54
2022/05/09 07:52:34;;;;;;;7.57;3.13;;;;;;;;;;5092258;28;20194;-56
2022/05/09 07:55:02;;;;;;;5.87;2.77;;;;;;;;;;5092255;28;20706;-55
2022/05/09 07:57:28;;;;;;;5.20;2.93;;;;;;;;;;5092051;28;20201;-55
2022/05/09 07:59:54;;;;;;;6.27;2.70;;;;;;;;;;5092130;28;20207;-54
2022/05/09 08:02:20;;;;;;;10.17;2.90;;;;;;;;;;5092012;28;20235;-54
2022/05/09 08:04:46;;;;;;;7.27;2.97;;;;;;;;;;5092053;28;20610;-56
2022/05/09 08:07:13;;;;;;;7.50;3.33;;;;;;;;;;5091658;28;20241;-54
2022/05/09 08:09:39;;;;;;;8.23;3.10;;;;;;;;;;5092147;28;20226;-53
2022/05/09 08:12:07;;;;;;;8.37;2.87;;;;;;;;;;5091853;28;20224;-53
2022/05/09 08:14:33;;;;;;;5.33;2.90;;;;;;;;;;5091771;28;20251;-52
2022/05/09 08:17:00;;;;;;;9.07;2.70;;;;;;;;;;5087115;28;20272;-54
2022/05/09 08:19:29;;;;;;;9.93;3.33;;;;;;;;;;5090877;28;20209;-53
2022/05/09 08:21:55;;;;;;;8.03;3.00;;;;;;;;;;5091724;28;20201;-54
2022/05/09 08:24:22;;;;;;;8.17;2.80;;;;;;;;;;5091912;28;20215;-54
2022/05/09 08:26:48;;;;;;;5.73;3.33;;;;;;;;;;5091805;28;20576;-54
2022/05/09 08:29:16;;;;;;;5.70;2.67;;;;;;;;;;5091767;28;20197;-54
2022/05/09 08:31:41;;;;;;;5.07;2.87;;;;;;;;;;5091538;28;20209;-54
2022/05/09 08:34:08;;;;;;;7.50;2.90;;;;;;;;;;5089895;28;20236;-54
2022/05/09 08:36:48;;;;;;;7.80;2.60;;;;;;;;;;5091672;28;20273;-57
2022/05/09 08:39:15;;;;;;;5.33;2.53;;;;;;;;;;5097419;28;20237;-53
2022/05/09 08:41:49;;;;;;;6.00;2.70;;;;;;;;;;5098222;28;20204;-52
2022/05/09 08:44:21;;;;;;;7.40;2.77;;;;;;;;;;5098848;28;20637;-53
2022/05/09 08:46:52;;;;;;;6.00;2.87;;;;;;;;;;5098700;28;20205;-54
2022/05/09 08:49:29;;;;;;;8.00;3.07;;;;;;;;;;5098057;28;20671;-54
2022/05/09 08:51:57;;;;;;;5.00;2.50;;;;;;;;;;5098521;28;20278;-53
2022/05/09 08:54:25;;;;;;;5.03;2.50;;;;;;;;;;5098315;28;20250;-53
2022/05/09 08:56:56;;;;;;;8.17;2.50;;;;;;;;;;5098453;28;20229;-53
2022/05/09 08:59:25;;;;;;;6.43;2.77;;;;;;;;;;5098198;28;20198;-53
2022/05/09 09:01:52;;;;;;;7.33;3.20;;;;;;;;;;5098105;28;20207;-53
2022/05/09 09:04:21;;;;;;;6.60;2.57;;;;;;;;;;5098180;28;20179;-53
2022/05/09 09:06:53;;;;;;;5.67;2.53;;;;;;;;;;5098557;28;20286;-54
2022/05/09 09:09:27;;;;;;;7.13;2.90;;;;;;;;;;5098355;28;20199;-53
2022/05/09 09:11:56;;;;;;;6.23;2.50;;;;;;;;;;5098432;28;20281;-54
2022/05/09 09:14:27;;;;;;;6.07;2.47;;;;;;;;;;5098191;28;20279;-53
2022/05/09 09:17:04;;;;;;;9.13;2.70;;;;;;;;;;5098018;28;20234;-53
2022/05/09 09:19:38;;;;;;;7.53;2.67;;;;;;;;;;5098412;28;20250;-53
2022/05/09 09:22:07;;;;;;;7.57;2.70;;;;;;;;;;5098212;28;20213;-52
2022/05/09 09:24:46;;;;;;;6.60;2.60;;;;;;;;;;5098364;28;20211;-53
2022/05/09 09:27:19;;;;;;;5.63;2.60;;;;;;;;;;5097366;28;20217;-53
2022/05/09 09:29:47;;;;;;;4.10;2.23;;;;;;;;;;5098304;28;20587;-53
2022/05/09 09:32:18;;;;;;;6.40;2.47;;;;;;;;;;5098352;28;20199;-53
2022/05/09 09:34:47;;;;;;;7.67;2.37;;;;;;;;;;5098211;28;20229;-53
2022/05/09 09:37:14;;;;;;;5.33;2.40;;;;;;;;;;5098195;28;20203;-52
2022/05/09 09:39:40;;;;;;;5.80;2.40;;;;;;;;;;5098076;28;20729;-53
2022/05/09 09:42:07;;;;;;;5.87;2.20;;;;;;;;;;5098171;28;20227;-52
2022/05/09 09:44:36;;;;;;;4.27;2.20;;;;;;;;;;5097925;28;20623;-52
2022/05/09 09:47:08;;;;;;;6.17;2.33;;;;;;;;;;5098183;28;20199;-53
2022/05/09 09:49:38;;;;;;;5.53;2.30;;;;;;;;;;5095658;28;20210;-52
2022/05/09 09:52:12;;;;;;;3.93;2.13;;;;;;;;;;5094665;28;20200;-53
2022/05/09 09:54:38;;;;;;;6.77;2.40;;;;;;;;;;5095202;28;20225;-53
2022/05/09 09:57:15;;;;;;;6.10;2.47;;;;;;;;;;5094737;28;20603;-52
2022/05/09 09:59:41;;;;;;;6.20;2.50;;;;;;;;;;5094745;28;20675;-52
2022/05/09 10:02:16;;;;;;;4.13;2.20;;;;;;;;;;5092864;28;20270;-52
2022/05/09 10:04:42;;;;;;;6.93;2.67;;;;;;;;;;5094441;28;20202;-53
2022/05/09 10:07:12;;;;;;;7.43;2.60;;;;;;;;;;5094177;28;20191;-52
2022/05/09 10:09:39;;;;;;;5.93;1.90;;;;;;;;;;5094201;28;20223;-53
2022/05/09 10:12:14;;;;;;;7.10;2.60;;;;;;;;;;5094298;28;20199;-53
2022/05/09 10:14:40;;;;;;;3.57;2.30;;;;;;;;;;5093999;28;20223;-53
2022/05/09 10:17:16;;;;;;;6.50;2.40;;;;;;;;;;5094017;28;20335;-54
2022/05/09 10:19:42;;;;;;;6.33;2.47;;;;;;;;;;5094527;28;20291;-53
2022/05/09 10:24:57;;;;;;;4.57;2.20;;;;;;;;;;5094254;28;20582;-53
2022/05/09 10:27:28;;;;;;;7.47;2.60;;;;;;;;;;5094157;28;20217;-53
2022/05/09 10:29:56;;;;;;;9.90;3.20;;;;;;;;;;5094116;28;20691;-53
2022/05/09 10:32:25;;;;;;;5.77;2.40;;;;;;;;;;5094137;28;20190;-53
2022/05/09 10:34:55;;;;;;;6.63;2.17;;;;;;;;;;5093916;28;20235;-53
2022/05/09 10:37:24;;;;;;;5.70;2.60;;;;;;;;;;5093760;28;20202;-53
2022/05/09 10:39:52;;;;;;;6.27;2.50;;;;;;;;;;5093877;28;20197;-53
2022/05/09 10:42:22;;;;;;;5.60;2.30;;;;;;;;;;5093819;28;20240;-54
2022/05/09 10:44:50;;;;;;;10.53;2.80;;;;;;;;;;5093729;28;20281;-53
2022/05/09 10:47:22;;;;;;;6.17;3.07;;;;;;;;;;5093769;28;20206;-53
2022/05/09 10:49:51;;;;;;;4.27;2.80;;;;;;;;;;5093616;28;20205;-53
2022/05/09 10:52:23;;;;;;;5.03;2.37;;;;;;;;;;5093801;28;20305;-53
2022/05/09 10:54:51;;;;;;;5.63;2.20;;;;;;;;;;5093641;28;20233;-53
2022/05/09 10:57:19;;;;;;;6.30;2.33;;;;;;;;;;5093707;28;20206;-53
2022/05/09 10:59:45;;;;;;;3.53;2.10;;;;;;;;;;5093631;28;20242;-53
2022/05/09 11:02:16;;;;;;;3.47;2.20;;;;;;;;;;5093187;28;20222;-54
2022/05/09 11:04:42;;;;;;;5.07;2.30;;;;;;;;;;5093764;28;20222;-53
2022/05/09 11:07:16;;;;;;;4.20;1.97;;;;;;;;;;5093299;28;20862;-53
2022/05/09 11:09:48;;;;;;;5.67;2.17;;;;;;;;;;5093370;28;20660;-53
2022/05/09 11:12:19;;;;;;;5.57;2.30;;;;;;;;;;5093441;28;20195;-53
2022/05/09 11:14:53;;;;;;;4.27;2.10;;;;;;;;;;5093330;28;20271;-53
2022/05/09 11:17:27;;;;;;;4.33;1.90;;;;;;;;;;5092808;28;20240;-53
2022/05/09 11:19:59;;;;;;;4.63;1.90;;;;;;;;;;5093141;28;20220;-54
2022/05/09 11:22:30;;;;;;;5.73;2.30;;;;;;;;;;5093085;28;20555;-53
2022/05/09 11:25:01;;;;;;;6.23;2.53;;;;;;;;;;5093088;28;20218;-53
2022/05/09 11:27:34;;;;;;;5.17;2.40;;;;;;;;;;5092721;28;20227;-54
2022/05/09 11:30:05;;;;;;;4.67;1.93;;;;;;;;;;5092730;28;20300;-53
2022/05/09 11:32:36;;;;;;;4.60;2.60;;;;;;;;;;5092867;28;20202;-53
2022/05/09 11:35:12;;;;;;;4.43;2.00;;;;;;;;;;5092742;28;20225;-53
2022/05/09 11:37:45;;;;;;;5.13;2.07;;;;;;;;;;5092821;28;20224;-53
2022/05/09 11:40:16;;;;;;;4.23;2.00;;;;;;;;;;5092974;28;20226;-53
2022/05/09 11:45:47;;;;;;;4.50;1.83;;;;;;;;;;5082851;28;20204;-53
2022/05/09 11:48:19;;;;;;;5.13;2.10;;;;;;;;;;5092192;28;20664;-53
2022/05/09 11:50:49;;;;;;;3.70;1.87;;;;;;;;;;5092325;28;20206;-53
2022/05/09 11:53:17;;;;;;;5.40;1.90;;;;;;;;;;5092315;28;20642;-54
2022/05/09 11:55:45;;;;;;;10.20;2.20;;;;;;;;;;5092619;28;20272;-53
2022/05/09 11:58:11;;;;;;;7.10;1.87;;;;;;;;;;5092111;28;20201;-53
2022/05/09 12:00:47;;;;;;;3.23;1.73;;;;;;;;;;5092160;28;20205;-53
2022/05/09 12:03:13;;;;;;;3.43;1.90;;;;;;;;;;5092248;28;20284;-53
2022/05/09 12:06:00;;;;;;;5.17;1.70;;;;;;;;;;5091988;28;20281;-53
2022/05/09 12:08:41;;;;;;;5.47;1.90;;;;;;;;;;5092102;28;20567;-53
2022/05/09 12:11:30;;;;;;;5.03;1.67;;;;;;;;;;5091870;28;20253;-53
2022/05/09 12:13:58;;;;;;;4.20;1.70;;;;;;;;;;5091321;28;20197;-53
2022/05/09 12:16:57;;;;;;;3.97;1.50;;;;;;;;;;5091748;28;20249;-53
2022/05/09 12:19:31;;;;;;;5.23;1.87;;;;;;;;;;5029472;28;20204;-53
2022/05/09 12:22:16;;;;;;;4.07;2.27;;;;;;;;;;5028852;28;20200;-53
2022/05/09 12:24:44;;;;;;;4.53;2.10;;;;;;;;;;5068132;28;20218;-53
2022/05/09 12:27:25;;;;;;;4.20;2.00;;;;;;;;;;5091766;28;20569;-54
2022/05/09 12:29:51;;;;;;;3.73;1.80;;;;;;;;;;5091860;28;20680;-53
2022/05/09 12:32:18;;;;;;;4.97;2.03;;;;;;;;;;5092179;28;20209;-53
2022/05/09 12:34:45;;;;;;;5.83;2.10;;;;;;;;;;5091887;28;20696;-53
2022/05/09 12:37:12;;;;;;;4.80;2.10;;;;;;;;;;5091864;28;20198;-53
2022/05/09 12:39:46;;;;;;;6.17;1.80;;;;;;;;;;5092108;28;20202;-53
2022/05/09 12:42:22;;;;;;;3.33;1.80;;;;;;;;;;5092115;28;20297;-54
2022/05/09 12:44:49;;;;;;;5.37;2.10;;;;;;;;;;5091905;28;20205;-54
2022/05/09 12:47:16;;;;;;;3.73;2.57;;;;;;;;;;5091960;28;20196;-53
2022/05/09 12:49:44;;;;;;;2.80;1.97;;;;;;;;;;5091929;28;20199;-53
2022/05/09 12:52:11;;;;;;;3.10;2.23;;;;;;;;;;5091697;28;20210;-53
2022/05/09 12:54:39;;;;;;;9.17;2.13;;;;;;;;;;5091941;28;20746;-53
2022/05/09 12:57:08;;;;;;;6.07;2.10;;;;;;;;;;5091857;28;20179;-53
2022/05/09 12:59:45;;;;;;;3.70;1.80;;;;;;;;;;5091839;28;20207;-53
2022/05/09 13:02:20;;;;;;;6.87;2.30;;;;;;;;;;5091652;28;20198;-53
2022/05/09 13:04:47;;;;;;;3.20;1.90;;;;;;;;;;5091893;28;20194;-53
2022/05/09 13:07:14;;;;;;;4.77;2.17;;;;;;;;;;5091691;28;20225;-53
2022/05/09 13:09:45;;;;;;;4.90;2.37;;;;;;;;;;5091780;28;20199;-53
2022/05/09 13:12:18;;;;;;;3.77;2.27;;;;;;;;;;5091399;28;20210;-54
2022/05/09 13:14:46;;;;;;;4.57;2.00;;;;;;;;;;5091432;28;20723;-53
2022/05/09 13:17:14;;;;;;;4.00;1.87;;;;;;;;;;5091341;28;20246;-53
2022/05/09 13:19:44;;;;;;;4.50;2.20;;;;;;;;;;5091151;28;20202;-53
2022/05/09 13:22:10;;;;;;;3.40;2.03;;;;;;;;;;5089570;28;20203;-53
2022/05/09 13:24:37;;;;;;;3.30;1.73;;;;;;;;;;5092818;28;20221;-53
2022/05/09 13:27:05;;;;;;;5.17;2.40;;;;;;;;;;5094952;28;20293;-53
2022/05/09 13:29:36;;;;;;;3.30;1.73;;;;;;;;;;5095066;28;20191;-53
2022/05/09 13:32:03;;;;;;;3.60;2.07;;;;;;;;;;5094904;28;20278;-53
2022/05/09 13:34:31;;;;;;;4.33;1.90;;;;;;;;;;5094598;28;20305;-53
2022/05/09 13:36:57;;;;;;;4.40;2.57;;;;;;;;;;5094440;28;20196;-53
2022/05/09 13:39:25;;;;;;;5.97;2.50;;;;;;;;;;5094879;28;20580;-53
2022/05/09 13:41:52;;;;;;;4.83;2.33;;;;;;;;;;5094593;28;20233;-53
2022/05/09 13:44:20;;;;;;;3.17;2.00;;;;;;;;;;5094152;28;20641;-54
2022/05/09 13:46:49;;;;;;;4.93;1.97;;;;;;;;;;5095004;28;20228;-53
2022/05/09 13:49:15;;;;;;;6.37;2.40;;;;;;;;;;5094703;28;20208;-53
2022/05/09 13:51:42;;;;;;;4.00;1.97;;;;;;;;;;5094732;28;20198;-53
2022/05/09 13:54:09;;;;;;;5.77;2.13;;;;;;;;;;5094720;28;20236;-53
2022/05/09 13:56:36;;;;;;;3.27;2.00;;;;;;;;;;5094268;28;20187;-53
2022/05/09 13:59:04;;;;;;;3.80;2.10;;;;;;;;;;5094634;28;20294;-54
2022/05/09 14:01:38;;;;;;;6.33;2.13;;;;;;;;;;5095003;28;20219;-53
2022/05/09 14:04:06;;;;;;;3.93;2.10;;;;;;;;;;5094762;28;20197;-55
2022/05/09 14:06:35;;;;;;;5.20;2.10;;;;;;;;;;5094631;28;20206;-54
2022/05/09 14:09:37;;;;;;;7.17;2.10;;;;;;;;;;5094189;28;20661;-53
2022/05/09 14:11:57;;;;;;;7.43;2.27;;;;;;;;;;5088002;28;20253;-53
2022/05/09 14:14:34;;;;;;;4.23;2.20;;;;;;;;;;5093551;28;20321;-53
2022/05/09 14:17:01;;;;;;;3.83;2.10;;;;;;;;;;5094078;28;20338;-53
2022/05/09 14:19:30;;;;;;;4.33;2.27;;;;;;;;;;5094143;28;20205;-51
2022/05/09 14:22:02;;;;;;;4.13;2.10;;;;;;;;;;5094047;28;20560;-53
2022/05/09 14:24:29;;;;;;;3.47;2.03;;;;;;;;;;5092442;28;20305;-53
2022/05/09 14:29:49;;;;;;;5.87;2.27;;;;;;;;;;5093682;28;20227;-53
2022/05/09 14:32:16;;;;;;;5.27;2.00;;;;;;;;;;5093857;28;20297;-53
2022/05/09 14:34:54;;;;;;;6.47;2.07;;;;;;;;;;5093645;28;20223;-53
2022/05/09 14:37:27;;;;;;;5.13;2.03;;;;;;;;;;5092954;28;20202;-53
2022/05/09 14:40:00;;;;;;;5.63;2.10;;;;;;;;;;5093658;28;20286;-53
2022/05/09 14:42:32;;;;;;;5.07;2.40;;;;;;;;;;5093805;28;20254;-53
2022/05/09 14:45:13;;;;;;;3.17;2.00;;;;;;;;;;5093480;28;20198;-53
2022/05/09 14:47:41;;;;;;;6.23;2.40;;;;;;;;;;5093350;28;20208;-53
2022/05/09 14:50:13;;;;;;;5.77;2.60;;;;;;;;;;5093213;28;20225;-52
2022/05/09 14:52:41;;;;;;;5.83;2.67;;;;;;;;;;5093361;28;20263;-56
2022/05/09 14:57:58;;;;;;;3.20;2.33;;;;;;;;;;5093392;28;20191;-53
2022/05/09 15:00:26;;;;;;;3.70;2.10;;;;;;;;;;5093189;28;20201;-53
2022/05/09 15:02:56;;;;;;;4.10;2.23;;;;;;;;;;5093000;28;20782;-53
2022/05/09 15:05:23;;;;;;;6.33;2.37;;;;;;;;;;5092877;28;20212;-53